createdAt,value
2022-10-05T00:00:58.121Z,4.10
2022-10-05T00:03:27.031Z,3.70
2022-10-05T00:05:55.237Z,4.28
2022-10-05T00:08:24.681Z,4.35
2022-10-05T00:10:53.228Z,3.80
2022-10-05T00:13:22.043Z,4.00
2022-10-05T00:15:52.366Z,3.88
2022-10-05T00:18:23.860Z,3.92
2022-10-05T00:20:51.850Z,3.83
2022-10-05T00:23:22.277Z,3.33
2022-10-05T00:25:50.579Z,3.58
2022-10-05T00:28:30.454Z,3.50
2022-10-05T00:30:59.896Z,3.75
2022-10-05T00:33:28.187Z,3.45
2022-10-05T00:35:56.221Z,3.53
2022-10-05T00:38:24.785Z,3.72
2022-10-05T00:41:06.627Z,3.97
2022-10-05T00:43:45.497Z,3.60
2022-10-05T00:46:38.657Z,3.70
2022-10-05T00:49:37.351Z,3.83
2022-10-05T00:52:26.949Z,3.63
2022-10-05T00:55:15.426Z,3.55
2022-10-05T00:58:11.130Z,3.88
2022-10-05T01:00:52.534Z,3.55
2022-10-05T01:03:30.529Z,3.10
2022-10-05T01:06:05.021Z,3.38
2022-10-05T01:11:14.747Z,3.13
2022-10-05T01:13:49.480Z,2.85
2022-10-05T01:16:27.084Z,3.38
2022-10-05T01:19:06.166Z,2.85
2022-10-05T01:21:45.217Z,2.80
2022-10-05T01:24:17.898Z,3.30
2022-10-05T01:27:06.330Z,3.53
2022-10-05T01:29:41.373Z,3.22
2022-10-05T01:32:24.096Z,3.28
2022-10-05T01:35:13.880Z,3.63
2022-10-05T01:37:48.135Z,3.15
2022-10-05T01:40:45.067Z,3.97
2022-10-05T01:43:16.378Z,3.55
2022-10-05T01:46:22.389Z,3.63
2022-10-05T01:49:15.076Z,4.28
2022-10-05T01:52:01.711Z,3.67
2022-10-05T01:54:44.268Z,3.80
2022-10-05T01:57:21.801Z,3.92
2022-10-05T02:00:06.731Z,3.47
2022-10-05T02:03:06.537Z,4.25
2022-10-05T02:05:41.897Z,4.07
2022-10-05T02:08:39.437Z,3.85
2022-10-05T02:11:10.319Z,4.18
2022-10-05T02:14:11.813Z,4.45
2022-10-05T02:16:48.732Z,3.88
2022-10-05T02:19:29.735Z,3.97
2022-10-05T02:22:05.189Z,3.70
2022-10-05T02:24:47.176Z,3.92
2022-10-05T02:27:17.765Z,4.13
2022-10-05T02:29:45.986Z,3.90
2022-10-05T02:32:21.555Z,3.88
2022-10-05T02:34:50.126Z,4.00
2022-10-05T02:37:54.602Z,4.30
2022-10-05T02:40:47.898Z,4.00
2022-10-05T02:43:43.617Z,4.25
2022-10-05T02:46:11.736Z,4.22
2022-10-05T02:48:56.275Z,4.35
2022-10-05T02:51:49.465Z,4.90
2022-10-05T02:54:35.352Z,5.00
2022-10-05T02:57:14.354Z,5.00
2022-10-05T02:59:58.556Z,3.97
2022-10-05T03:02:50.398Z,4.47
2022-10-05T03:05:26.176Z,4.80
2022-10-05T03:08:02.382Z,4.53
2022-10-05T03:10:50.705Z,4.25
2022-10-05T03:13:25.913Z,5.00
2022-10-05T03:16:10.060Z,4.70
2022-10-05T03:18:56.481Z,4.90
2022-10-05T03:21:35.706Z,4.32
2022-10-05T03:24:22.561Z,4.75
2022-10-05T03:29:41.423Z,4.55
2022-10-05T03:32:33.593Z,4.80
2022-10-05T03:35:26.768Z,4.78
2022-10-05T03:38:09.126Z,4.00
2022-10-05T03:40:47.869Z,4.78
2022-10-05T03:43:52.524Z,4.15
2022-10-05T03:46:51.750Z,4.63
2022-10-05T03:49:35.212Z,4.50
2022-10-05T03:52:25.048Z,4.88
2022-10-05T03:55:00.259Z,4.55
2022-10-05T03:57:29.929Z,5.10
2022-10-05T04:00:18.188Z,4.93
2022-10-05T04:02:56.259Z,5.10
2022-10-05T04:05:47.747Z,4.35
2022-10-05T04:08:40.038Z,4.68
2022-10-05T04:11:12.761Z,4.30
2022-10-05T04:13:49.676Z,5.20
2022-10-05T04:16:21.557Z,4.85
2022-10-05T04:19:02.990Z,4.57
2022-10-05T04:21:48.244Z,5.32
2022-10-05T04:24:29.025Z,5.93
2022-10-05T04:27:01.102Z,5.13
2022-10-05T04:29:51.019Z,5.63
2022-10-05T04:32:26.585Z,5.30
2022-10-05T04:35:20.578Z,4.88
2022-10-05T04:38:08.456Z,5.18
2022-10-05T04:41:00.859Z,5.00
2022-10-05T04:44:00.495Z,4.82
2022-10-05T04:46:45.711Z,5.30
2022-10-05T04:49:28.967Z,4.53
2022-10-05T04:52:25.283Z,5.55
2022-10-05T04:55:15.880Z,5.50
2022-10-05T04:58:25.276Z,4.82
2022-10-05T05:01:29.811Z,4.72
2022-10-05T05:04:36.776Z,4.95
2022-10-05T05:07:56.095Z,4.38
2022-10-05T05:10:49.110Z,4.63
2022-10-05T05:14:07.608Z,3.97
2022-10-05T05:16:45.061Z,5.25
2022-10-05T05:19:39.027Z,3.88
2022-10-05T05:22:18.748Z,4.18
2022-10-05T05:24:49.082Z,3.63
2022-10-05T05:27:42.415Z,3.50
2022-10-05T05:30:20.318Z,3.50
2022-10-05T05:32:53.318Z,3.55
2022-10-05T05:35:33.246Z,3.10
2022-10-05T05:38:19.760Z,3.65
2022-10-05T05:40:56.360Z,3.30
2022-10-05T05:43:53.344Z,4.20
2022-10-05T05:50:02.936Z,3.78
2022-10-05T05:52:42.017Z,3.30
2022-10-05T05:55:33.429Z,3.90
2022-10-05T05:58:25.536Z,3.33
2022-10-05T06:00:54.392Z,3.17
2022-10-05T06:03:38.243Z,3.38
2022-10-05T06:06:13.656Z,4.47
2022-10-05T06:08:50.513Z,3.13
2022-10-05T06:11:48.824Z,3.55
2022-10-05T06:14:26.142Z,3.10
2022-10-05T06:17:02.291Z,3.28
2022-10-05T06:19:30.178Z,3.33
2022-10-05T06:22:07.238Z,3.70
2022-10-05T06:24:57.863Z,3.90
2022-10-05T06:27:26.857Z,3.50
2022-10-05T06:30:13.668Z,4.07
2022-10-05T06:32:51.398Z,4.55
2022-10-05T06:35:39.255Z,4.70
2022-10-05T06:38:35.194Z,4.85
2022-10-05T06:41:40.946Z,4.13
2022-10-05T06:44:16.286Z,4.78
2022-10-05T06:46:59.316Z,4.40
2022-10-05T06:49:42.702Z,4.10
2022-10-05T06:52:45.554Z,4.38
2022-10-05T06:55:16.500Z,3.80
2022-10-05T06:58:21.904Z,3.97
2022-10-05T07:01:11.475Z,3.75
2022-10-05T07:04:03.941Z,3.40
2022-10-05T07:06:38.624Z,3.83
2022-10-05T07:09:31.645Z,3.75
2022-10-05T07:12:34.588Z,3.92
2022-10-05T07:15:40.852Z,3.17
2022-10-05T07:18:46.237Z,3.08
2022-10-05T07:21:59.185Z,4.90
2022-10-05T07:24:35.265Z,3.80
2022-10-05T07:27:18.376Z,4.25
2022-10-05T07:30:04.796Z,4.07
2022-10-05T07:32:55.485Z,3.70
2022-10-05T07:36:08.239Z,3.45
2022-10-05T07:38:48.545Z,4.05
2022-10-05T07:41:31.132Z,3.58
2022-10-05T07:44:16.594Z,3.70
2022-10-05T07:46:52.390Z,3.80
2022-10-05T07:49:32.778Z,3.85
2022-10-05T07:52:37.530Z,4.53
2022-10-05T07:55:25.475Z,3.40
2022-10-05T07:58:00.113Z,3.70
2022-10-05T08:00:47.396Z,3.63
2022-10-05T08:03:22.333Z,3.70
2022-10-05T08:05:51.301Z,3.50
2022-10-05T08:08:28.324Z,4.13
2022-10-05T08:11:05.133Z,4.00
2022-10-05T08:13:39.621Z,4.53
2022-10-05T08:16:13.639Z,4.10
2022-10-05T08:18:57.254Z,4.75
2022-10-05T08:21:44.719Z,4.70
2022-10-05T08:24:43.004Z,4.00
2022-10-05T08:27:29.392Z,3.85
2022-10-05T08:30:03.466Z,3.95
2022-10-05T08:32:37.387Z,4.07
2022-10-05T08:35:34.439Z,4.38
2022-10-05T08:38:03.793Z,4.35
2022-10-05T08:41:01.873Z,3.97
2022-10-05T08:44:01.222Z,3.45
2022-10-05T08:46:32.075Z,3.13
2022-10-05T08:49:18.950Z,3.20
2022-10-05T08:52:24.392Z,2.78
2022-10-05T08:55:29.578Z,3.08
2022-10-05T08:58:22.641Z,3.95
2022-10-05T09:01:05.706Z,4.05
2022-10-05T09:04:04.379Z,3.53
2022-10-05T09:07:09.977Z,3.28
2022-10-05T09:09:50.331Z,3.03
2022-10-05T09:12:53.067Z,3.25
2022-10-05T09:16:00.519Z,3.00
2022-10-05T09:18:59.916Z,2.97
2022-10-05T09:21:46.171Z,3.30
2022-10-05T09:25:38.508Z,3.38
2022-10-05T09:28:28.202Z,4.70
2022-10-05T09:31:10.879Z,4.30
2022-10-05T09:34:29.192Z,4.07
2022-10-05T09:37:38.867Z,4.30
2022-10-05T09:41:02.184Z,4.72
2022-10-05T09:43:42.800Z,4.88
2022-10-05T09:46:48.787Z,5.50
2022-10-05T09:52:45.518Z,4.78
2022-10-05T09:55:39.471Z,3.13
2022-10-05T09:58:34.851Z,3.00
2022-10-05T10:01:34.368Z,3.50
2022-10-05T10:04:15.598Z,3.58
2022-10-05T10:07:07.824Z,3.85
2022-10-05T10:10:20.093Z,3.78
2022-10-05T10:13:00.761Z,4.40
2022-10-05T10:15:57.871Z,4.10
2022-10-05T10:21:55.816Z,3.30
2022-10-05T10:25:25.007Z,3.15
2022-10-05T10:28:21.418Z,3.05
2022-10-05T10:31:00.603Z,2.63
2022-10-05T10:33:48.749Z,2.95
2022-10-05T10:36:38.477Z,3.10
2022-10-05T10:39:20.591Z,2.53
2022-10-05T10:43:03.379Z,2.15
2022-10-05T10:46:02.635Z,1.85
2022-10-05T10:48:47.367Z,2.03
2022-10-05T10:51:33.806Z,1.90
2022-10-05T10:54:38.398Z,2.00
2022-10-05T10:58:34.417Z,2.20
2022-10-05T11:01:50.322Z,2.30
2022-10-05T11:04:55.436Z,1.90
2022-10-05T11:07:43.255Z,1.50
2022-10-05T11:11:11.191Z,2.20
2022-10-05T11:18:47.455Z,2.00
2022-10-05T11:21:41.593Z,1.92
2022-10-05T11:24:43.028Z,1.85
2022-10-05T11:27:41.085Z,2.00
2022-10-05T11:30:25.867Z,1.67
2022-10-05T11:33:29.870Z,1.95
2022-10-05T11:36:43.582Z,1.67
2022-10-05T11:39:40.024Z,2.65
2022-10-05T11:43:05.088Z,3.10
2022-10-05T11:45:57.754Z,1.92
2022-10-05T11:49:21.629Z,1.85
2022-10-05T11:52:23.914Z,1.65
2022-10-05T11:55:19.706Z,1.50
2022-10-05T11:58:13.010Z,1.70
2022-10-05T12:01:05.221Z,12.02
2022-10-05T12:04:15.446Z,2.03
2022-10-05T12:07:12.907Z,2.28
2022-10-05T12:10:11.760Z,1.88
2022-10-05T12:13:04.408Z,1.58
2022-10-05T12:15:48.218Z,2.15
2022-10-05T12:18:42.332Z,1.95
2022-10-05T12:21:38.833Z,2.40
2022-10-05T12:24:41.123Z,2.45
2022-10-05T12:27:42.938Z,1.92
2022-10-05T12:30:32.162Z,2.05
2022-10-05T12:33:13.204Z,1.60
2022-10-05T12:36:04.258Z,1.50
2022-10-05T12:38:45.560Z,2.05
2022-10-05T12:41:50.453Z,2.00
2022-10-05T12:44:40.192Z,1.80
2022-10-05T12:47:39.549Z,2.00
2022-10-05T12:50:28.394Z,1.70
2022-10-05T12:53:18.163Z,1.80
2022-10-05T12:55:53.586Z,1.75
2022-10-05T12:58:21.435Z,1.60
2022-10-05T13:01:08.888Z,1.60
2022-10-05T13:03:38.304Z,1.40
2022-10-05T13:06:15.780Z,1.92
2022-10-05T13:09:10.364Z,1.63
2022-10-05T13:11:49.672Z,1.70
2022-10-05T13:14:37.536Z,2.70
2022-10-05T13:17:12.423Z,2.60
2022-10-05T13:19:46.779Z,2.42
2022-10-05T13:22:51.920Z,1.45
2022-10-05T13:25:34.440Z,1.58
2022-10-05T13:28:02.637Z,1.30
2022-10-05T13:30:34.206Z,1.80
2022-10-05T13:33:22.065Z,1.10
2022-10-05T13:35:58.358Z,1.83
2022-10-05T13:38:30.776Z,1.15
2022-10-05T13:41:18.508Z,1.67
2022-10-05T13:44:03.323Z,1.67
2022-10-05T13:46:34.828Z,1.60
2022-10-05T13:49:39.843Z,2.22
2022-10-05T13:53:13.860Z,1.90
2022-10-05T13:56:40.210Z,1.70
2022-10-05T13:59:26.179Z,1.95
2022-10-05T14:02:01.000Z,2.00
2022-10-05T14:04:53.592Z,2.33
2022-10-05T14:07:34.296Z,2.08
2022-10-05T14:10:17.346Z,2.30
2022-10-05T14:12:54.153Z,2.38
2022-10-05T14:15:29.216Z,1.77
2022-10-05T14:17:59.702Z,2.63
2022-10-05T14:20:33.373Z,2.20
2022-10-05T14:23:26.913Z,2.47
2022-10-05T14:26:08.419Z,2.15
2022-10-05T14:28:48.315Z,2.35
2022-10-05T14:31:28.196Z,2.33
2022-10-05T14:34:50.987Z,2.10
2022-10-05T14:37:28.740Z,2.42
2022-10-05T14:40:04.446Z,2.10
2022-10-05T14:42:46.276Z,3.10
2022-10-05T14:45:19.096Z,2.33
2022-10-05T14:47:51.608Z,2.40
2022-10-05T14:50:26.424Z,2.20
2022-10-05T14:53:57.650Z,2.38
2022-10-05T14:57:01.190Z,2.63
2022-10-05T15:03:55.696Z,2.58
2022-10-05T15:30:36.117Z,2.30
2022-10-05T15:33:46.894Z,2.67
2022-10-05T15:40:43.297Z,2.08
2022-10-05T15:43:21.522Z,2.70
2022-10-05T15:46:40.043Z,2.92
2022-10-05T15:49:24.682Z,2.97
2022-10-05T15:52:25.558Z,2.33
2022-10-05T15:55:20.081Z,2.75
2022-10-05T15:58:14.221Z,2.60
2022-10-05T16:01:54.450Z,2.78
2022-10-05T16:04:38.264Z,3.22
2022-10-05T16:08:44.076Z,3.00
2022-10-05T16:16:18.320Z,3.08
2022-10-05T16:19:09.557Z,4.53
2022-10-05T16:21:58.187Z,4.60
2022-10-05T16:25:23.335Z,4.38
2022-10-05T16:28:32.785Z,7.00
2022-10-05T16:31:56.724Z,7.05
2022-10-05T16:38:59.379Z,7.75
2022-10-05T16:43:19.167Z,6.43
2022-10-05T16:46:33.568Z,5.55
2022-10-05T16:49:40.494Z,6.55
2022-10-05T16:52:21.522Z,4.87
2022-10-05T16:54:58.899Z,5.53
2022-10-05T16:57:30.382Z,6.18
2022-10-05T17:00:21.922Z,5.85
2022-10-05T17:03:34.703Z,5.38
2022-10-05T17:06:48.266Z,4.53
2022-10-05T17:09:26.273Z,3.85
2022-10-05T17:12:05.703Z,3.80
2022-10-05T17:15:00.588Z,3.38
2022-10-05T17:17:51.916Z,4.05
2022-10-05T17:20:29.814Z,4.90
2022-10-05T17:23:27.078Z,4.72
2022-10-05T17:26:28.382Z,3.80
2022-10-05T17:29:00.607Z,5.68
2022-10-05T17:31:29.144Z,5.35
2022-10-05T17:34:26.407Z,6.28
2022-10-05T17:37:00.775Z,7.45
2022-10-05T17:39:50.019Z,8.85
2022-10-05T17:42:47.862Z,9.60
2022-10-05T17:45:16.003Z,9.48
2022-10-05T17:47:59.103Z,10.07
2022-10-05T17:51:07.027Z,9.32
2022-10-05T17:54:06.680Z,7.22
2022-10-05T17:56:51.076Z,7.43
2022-10-05T17:59:58.590Z,8.25
2022-10-05T18:02:51.091Z,8.05
2022-10-05T18:05:28.128Z,7.65
2022-10-05T18:08:39.195Z,6.97
2022-10-05T18:11:17.484Z,8.23
2022-10-05T18:13:50.317Z,10.02
2022-10-05T18:17:10.879Z,9.20
2022-10-05T18:19:39.731Z,10.15
2022-10-05T18:22:16.790Z,10.50
2022-10-05T18:24:53.452Z,11.43
2022-10-05T18:27:35.666Z,11.80
2022-10-05T18:30:19.336Z,11.13
2022-10-05T18:32:51.153Z,12.57
2022-10-05T18:35:20.494Z,12.82
2022-10-05T18:38:04.555Z,13.55
2022-10-05T18:41:09.386Z,12.73
2022-10-05T18:44:03.582Z,13.25
2022-10-05T18:46:57.555Z,13.73
2022-10-05T18:49:57.305Z,18.27
2022-10-05T18:52:37.111Z,15.00
2022-10-05T18:55:21.221Z,13.27
2022-10-05T18:57:52.336Z,14.05
2022-10-05T19:00:21.939Z,15.00
2022-10-05T19:03:36.987Z,14.38
2022-10-05T19:06:28.264Z,15.23
2022-10-05T19:09:19.943Z,15.48
2022-10-05T19:12:01.008Z,15.40
2022-10-05T19:15:10.697Z,14.48
2022-10-05T19:18:21.887Z,14.88
2022-10-05T19:21:03.835Z,14.57
2022-10-05T19:24:13.439Z,15.05
2022-10-05T19:27:18.978Z,14.55
2022-10-05T19:30:33.182Z,14.70
2022-10-05T19:33:12.768Z,14.65
2022-10-05T19:36:31.272Z,14.15
2022-10-05T19:39:32.346Z,15.02
2022-10-05T19:42:18.781Z,15.52
2022-10-05T19:45:31.272Z,15.60
2022-10-05T19:48:25.041Z,15.35
2022-10-05T19:51:46.195Z,15.77
2022-10-05T19:54:48.480Z,16.90
2022-10-05T19:57:56.472Z,15.27
2022-10-05T20:00:31.418Z,15.95
2022-10-05T20:03:14.638Z,13.75
2022-10-05T20:10:38.455Z,11.93
2022-10-05T20:13:47.976Z,12.45
2022-10-05T20:16:45.897Z,12.25
2022-10-05T20:19:53.728Z,11.65
2022-10-05T20:24:25.550Z,11.07
2022-10-05T20:31:02.543Z,10.63
2022-10-05T20:33:48.596Z,10.88
2022-10-05T20:36:23.932Z,11.07
2022-10-05T20:39:33.083Z,10.70
2022-10-05T20:42:10.692Z,12.25
2022-10-05T20:49:29.565Z,10.60
2022-10-05T20:52:19.691Z,10.18
2022-10-05T20:55:41.288Z,11.07
2022-10-05T21:03:50.031Z,8.73
2022-10-05T21:17:49.862Z,7.43
2022-10-05T21:28:24.598Z,6.50
2022-10-05T21:30:56.143Z,5.60
2022-10-05T21:33:25.654Z,6.15
2022-10-05T21:35:53.925Z,6.00
2022-10-05T21:38:21.981Z,6.07
2022-10-05T21:40:49.877Z,6.53
2022-10-05T21:43:20.615Z,6.60
2022-10-05T21:45:48.880Z,6.90
2022-10-05T21:48:20.493Z,6.18
2022-10-05T21:50:49.289Z,6.22
2022-10-05T21:53:18.847Z,6.80
2022-10-05T21:55:48.631Z,6.00
2022-10-05T21:58:18.471Z,7.30
2022-10-05T22:00:47.814Z,7.22
2022-10-05T22:03:22.274Z,7.70
2022-10-05T22:05:51.603Z,7.15
2022-10-05T22:08:25.267Z,7.47
2022-10-05T22:10:56.629Z,7.80
2022-10-05T22:13:33.271Z,7.95
2022-10-05T22:16:03.294Z,7.13
2022-10-05T22:18:31.763Z,7.35
2022-10-05T22:21:08.073Z,7.65
2022-10-05T22:23:37.352Z,7.70
2022-10-05T22:26:08.911Z,7.10
2022-10-05T22:28:38.801Z,6.18
2022-10-05T22:31:07.387Z,7.00
2022-10-05T22:33:38.656Z,6.45
2022-10-05T22:36:07.390Z,6.93
2022-10-05T22:38:42.397Z,5.78
2022-10-05T22:41:12.879Z,6.35
2022-10-05T22:43:41.603Z,6.93
2022-10-05T22:46:21.459Z,6.35
2022-10-05T22:48:50.687Z,6.03
2022-10-05T22:51:22.513Z,6.40
2022-10-05T22:53:52.437Z,6.43
2022-10-05T22:56:21.453Z,5.88
2022-10-05T22:58:51.700Z,6.72
2022-10-05T23:01:20.455Z,6.35
2022-10-05T23:03:48.641Z,6.50
2022-10-05T23:06:18.680Z,7.28
2022-10-05T23:08:47.548Z,6.28
2022-10-05T23:11:23.956Z,6.50
2022-10-05T23:16:30.049Z,6.47
2022-10-05T23:18:58.676Z,6.38
2022-10-05T23:21:31.445Z,7.15
2022-10-05T23:24:06.780Z,7.75
2022-10-05T23:26:36.450Z,8.02
2022-10-05T23:29:06.596Z,9.10
2022-10-05T23:31:37.069Z,9.30
2022-10-05T23:34:05.029Z,8.88
2022-10-05T23:36:33.488Z,9.13
2022-10-05T23:39:03.331Z,9.23
2022-10-05T23:41:32.528Z,9.90
2022-10-05T23:44:00.188Z,10.63
2022-10-05T23:46:32.278Z,10.15
2022-10-05T23:49:00.895Z,10.30
2022-10-05T23:51:29.153Z,10.07
2022-10-05T23:53:57.282Z,10.75
2022-10-05T23:56:29.368Z,10.48
2022-10-05T23:58:58.406Z,10.07
